Time;durP1;ratioP1;P1;durP2;ratioP2;P2;SDS_P1;SDS_P2;PMS_P1;PMS_P2;Temp;Humidity;BMP_temperature;BMP_pressure;BME280_temperature;BME280_humidity;BME280_pressure;Samples;Min_cycle;Max_cycle;Signal;HPM_P1;HPM_P2
2020/12/19 00:01:39;;;;;;;37.73;23.42;;;;;;;-0.05;84.45;101361.20;1749066;80;21338;-67
2020/12/19 00:04:07;;;;;;;42.20;23.35;;;;;;;-0.06;84.45;101363.84;1792984;80;21158;-68
2020/12/19 00:06:35;;;;;;;37.42;21.97;;;;;;;-0.06;84.46;101354.75;1774759;80;21125;-67
2020/12/19 00:09:03;;;;;;;36.65;19.90;;;;;;;-0.06;84.47;101359.50;1806581;79;21895;-67
2020/12/19 00:11:31;;;;;;;37.95;23.18;;;;;;;-0.06;84.46;101358.20;1769994;80;21081;-68
2020/12/19 00:14:00;;;;;;;37.95;22.35;;;;;;;-0.06;84.47;101358.64;1779958;80;21061;-67
2020/12/19 00:16:29;;;;;;;39.98;22.80;;;;;;;-0.06;84.45;101358.20;1760312;81;21169;-68
2020/12/19 00:18:57;;;;;;;41.15;24.55;;;;;;;-0.06;84.45;101351.70;1780222;80;21541;-68
2020/12/19 00:21:33;;;;;;;41.55;24.18;;;;;;;-0.05;84.45;101357.31;1780132;80;22762;-68
2020/12/19 00:24:02;;;;;;;42.30;25.10;;;;;;;-0.06;84.46;101358.20;1780074;80;21066;-67
2020/12/19 00:26:35;;;;;;;38.20;21.23;;;;;;;-0.05;84.48;101363.80;1780202;80;21473;-67
2020/12/19 00:29:05;;;;;;;45.35;22.85;;;;;;;-0.05;84.46;101359.05;1790816;79;21069;-68
2020/12/19 00:31:32;;;;;;;38.50;22.58;;;;;;;-0.05;84.44;101363.80;1788589;80;21236;-67
2020/12/19 00:34:00;;;;;;;37.55;21.35;;;;;;;-0.04;84.46;101360.31;1755677;81;21960;-68
2020/12/19 00:36:28;;;;;;;39.58;21.25;;;;;;;-0.04;84.46;101355.13;1755614;80;21133;-68
2020/12/19 00:38:56;;;;;;;34.45;21.45;;;;;;;-0.02;84.46;101358.53;1755616;81;21110;-68
2020/12/19 00:41:25;;;;;;;30.48;19.02;;;;;;;-0.02;84.45;101357.23;1755618;81;21169;-68
2020/12/19 00:43:54;;;;;;;37.60;22.73;;;;;;;-0.03;84.46;101355.97;1755582;80;21066;-68
2020/12/19 00:46:22;;;;;;;41.10;27.93;;;;;;;-0.05;84.45;101353.41;1755758;81;22902;-67
2020/12/19 00:48:50;;;;;;;45.10;28.65;;;;;;;-0.06;84.44;101352.16;1755592;80;21106;-68
2020/12/19 00:51:22;;;;;;;48.10;28.95;;;;;;;-0.06;84.45;101354.30;1755702;81;21367;-67
2020/12/19 00:53:50;;;;;;;53.55;36.58;;;;;;;-0.07;84.47;101348.70;1755728;81;21082;-68
2020/12/19 00:56:23;;;;;;;120.33;90.75;;;;;;;-0.07;84.46;101347.41;1755638;81;21481;-68
2020/12/19 00:58:59;;;;;;;45.33;29.07;;;;;;;-0.03;84.47;101336.05;1873551;75;29046;-68
2020/12/19 01:01:27;;;;;;;46.83;27.52;;;;;;;-0.06;84.46;101334.83;1832768;77;21351;-68
2020/12/19 01:03:57;;;;;;;41.53;27.65;;;;;;;-0.07;84.47;101338.76;1808486;79;24208;-68
2020/12/19 01:06:26;;;;;;;54.20;36.83;;;;;;;-0.06;84.50;101338.72;1808475;79;21135;-68
2020/12/19 01:08:57;;;;;;;34.38;22.27;;;;;;;-0.07;84.50;101333.12;1808539;79;21574;-68
2020/12/19 01:11:27;;;;;;;39.73;24.55;;;;;;;-0.06;84.52;101330.93;1807822;79;21502;-67
2020/12/19 01:13:55;;;;;;;35.98;19.85;;;;;;;-0.05;84.52;101328.73;1808609;79;21511;-67
2020/12/19 01:16:26;;;;;;;34.23;21.23;;;;;;;-0.05;84.53;101326.14;1808472;79;21953;-67
2020/12/19 01:18:56;;;;;;;30.15;17.65;;;;;;;-0.06;84.51;101321.84;1809470;78;21147;-67
2020/12/19 01:21:27;;;;;;;29.05;18.48;;;;;;;-0.05;84.52;101326.59;1808539;79;21138;-67
2020/12/19 01:23:56;;;;;;;29.60;17.30;;;;;;;-0.06;84.53;101326.18;1808289;79;21537;-67
2020/12/19 01:26:24;;;;;;;28.57;18.27;;;;;;;-0.07;84.52;101325.77;1827316;78;21357;-68
2020/12/19 01:28:52;;;;;;;27.45;16.37;;;;;;;-0.08;84.52;101327.52;1822585;78;22927;-68
2020/12/19 01:31:22;;;;;;;31.07;18.12;;;;;;;-0.08;84.50;101322.32;1795936;80;21197;-68
2020/12/19 01:33:50;;;;;;;30.23;17.75;;;;;;;-0.07;84.52;101321.87;1795961;80;21081;-68
2020/12/19 01:36:22;;;;;;;30.08;18.15;;;;;;;-0.07;84.52;101324.47;1803983;79;21048;-68
2020/12/19 01:38:51;;;;;;;35.03;19.85;;;;;;;-0.08;84.53;101327.52;1808507;78;21475;-68
2020/12/19 01:41:21;;;;;;;35.55;19.27;;;;;;;-0.10;84.54;101322.77;1808470;79;22118;-68
2020/12/19 01:43:57;;;;;;;21.75;13.55;;;;;;;-0.09;84.53;101318.47;1808376;79;21072;-67
2020/12/19 01:46:53;;;;;;;24.98;14.47;;;;;;;-0.10;84.56;101329.27;1808417;78;21143;-68
2020/12/19 01:49:32;;;;;;;35.70;21.02;;;;;;;-0.09;84.58;101328.41;1808442;79;21095;-68
2020/12/19 01:52:05;;;;;;;38.38;22.75;;;;;;;-0.12;84.58;101320.66;1808350;79;21052;-68
2020/12/19 01:54:33;;;;;;;38.95;22.60;;;;;;;-0.10;84.59;101324.52;1808572;79;22764;-68
2020/12/19 01:57:01;;;;;;;33.48;21.37;;;;;;;-0.08;84.60;101325.36;1807692;79;22671;-68
2020/12/19 01:59:32;;;;;;;34.70;21.00;;;;;;;-0.07;84.63;101321.43;1800612;79;21487;-68
2020/12/19 02:02:07;;;;;;;35.98;20.95;;;;;;;-0.06;84.62;101320.55;1800526;78;21047;-68
2020/12/19 02:04:36;;;;;;;45.17;27.17;;;;;;;-0.05;84.64;101319.66;1800538;78;21103;-68
2020/12/19 02:07:05;;;;;;;33.95;18.62;;;;;;;-0.04;84.63;101314.87;1800549;79;23004;-68
2020/12/19 02:09:37;;;;;;;38.17;20.05;;;;;;;-0.03;84.64;101324.37;1800018;79;21537;-67
2020/12/19 02:12:06;;;;;;;27.02;14.68;;;;;;;-0.03;84.64;101321.77;1800082;79;21103;-68
2020/12/19 02:14:34;;;;;;;39.40;21.45;;;;;;;-0.03;84.63;101323.52;1799888;79;21143;-67
2020/12/19 02:17:04;;;;;;;35.15;19.27;;;;;;;-0.04;84.64;101326.55;1799880;79;21633;-67
2020/12/19 02:19:33;;;;;;;37.40;20.55;;;;;;;-0.04;84.61;101321.80;1799947;79;22048;-68
2020/12/19 02:22:01;;;;;;;38.05;19.50;;;;;;;-0.03;84.63;101324.37;1799849;79;21221;-67
2020/12/19 02:24:30;;;;;;;35.05;19.87;;;;;;;-0.02;84.65;101330.41;1799929;78;21068;-67
2020/12/19 02:26:58;;;;;;;36.68;17.48;;;;;;;-0.02;84.66;101325.22;1799750;79;21055;-68
2020/12/19 02:29:28;;;;;;;37.20;21.68;;;;;;;0.00;84.67;101329.96;1799884;78;21087;-67
2020/12/19 02:31:57;;;;;;;39.15;21.27;;;;;;;0.00;84.67;101329.96;1799927;79;23239;-67
2020/12/19 02:34:25;;;;;;;41.58;22.25;;;;;;;0.01;84.67;101326.47;1799931;78;21542;-67
2020/12/19 02:36:53;;;;;;;32.23;19.05;;;;;;;0.02;84.65;101328.19;1799845;78;21125;-67
2020/12/19 02:39:21;;;;;;;37.80;21.00;;;;;;;0.03;84.65;101328.59;1799875;79;21039;-67
2020/12/19 02:41:48;;;;;;;38.75;20.90;;;;;;;0.04;84.64;101334.20;1799920;79;21059;-67
2020/12/19 02:44:19;;;;;;;41.28;22.65;;;;;;;0.04;84.62;101337.23;1799754;79;22057;-67
2020/12/19 02:46:48;;;;;;;49.27;23.98;;;;;;;0.04;84.62;101329.45;1799937;79;21055;-68
2020/12/19 02:49:16;;;;;;;41.75;22.77;;;;;;;0.05;84.63;101338.50;1799967;79;21075;-67
2020/12/19 02:51:44;;;;;;;53.08;24.70;;;;;;;0.06;84.63;101340.65;1799858;79;21118;-67
2020/12/19 02:54:12;;;;;;;46.88;24.95;;;;;;;0.06;84.65;101341.50;1799872;79;21146;-68
2020/12/19 02:56:40;;;;;;;48.70;24.52;;;;;;;0.04;84.62;101331.59;1799860;79;22167;-68
2020/12/19 02:59:07;;;;;;;48.50;25.70;;;;;;;0.04;84.62;101333.34;1799637;79;21058;-67
2020/12/19 03:01:35;;;;;;;46.65;25.37;;;;;;;0.04;84.62;101329.45;1799731;78;21126;-67
2020/12/19 03:04:02;;;;;;;46.75;24.32;;;;;;;0.06;84.61;101331.11;1799824;79;21530;-68
2020/12/19 03:06:34;;;;;;;48.15;24.35;;;;;;;0.07;84.59;101334.56;1799883;79;21186;-68
2020/12/19 03:09:04;;;;;;;36.77;20.37;;;;;;;0.09;84.60;101329.73;1799858;78;24288;-68
2020/12/19 03:11:32;;;;;;;41.02;22.65;;;;;;;0.10;84.63;101332.78;1799823;79;21182;-68
2020/12/19 03:13:59;;;;;;;41.25;22.65;;;;;;;0.12;84.64;101335.34;1799836;79;21182;-68
2020/12/19 03:16:27;;;;;;;42.00;23.87;;;;;;;0.12;84.60;101334.05;1799814;79;21067;-68
2020/12/19 03:18:55;;;;;;;39.70;22.87;;;;;;;0.13;84.63;101331.85;1799728;78;21106;-68
2020/12/19 03:21:23;;;;;;;36.50;21.62;;;;;;;0.14;84.63;101329.66;1799803;78;21899;-68
2020/12/19 03:23:50;;;;;;;41.10;22.52;;;;;;;0.17;84.61;101329.14;1799767;79;22597;-68
2020/12/19 03:26:18;;;;;;;37.90;21.82;;;;;;;0.18;84.61;101329.55;1799802;79;21067;-68
2020/12/19 03:28:45;;;;;;;35.38;20.80;;;;;;;0.19;84.60;101326.09;1799775;78;22527;-68
2020/12/19 03:31:13;;;;;;;41.48;21.37;;;;;;;0.21;84.61;101324.31;1799851;78;21411;-68
2020/12/19 03:33:40;;;;;;;36.83;20.45;;;;;;;0.20;84.58;101319.16;1799845;79;22058;-68
2020/12/19 03:36:08;;;;;;;37.33;22.20;;;;;;;0.20;84.58;101318.70;1799679;78;21063;-67
2020/12/19 03:38:36;;;;;;;36.30;19.80;;;;;;;0.21;84.56;101320.86;1799833;79;21107;-68
2020/12/19 03:41:04;;;;;;;31.12;19.05;;;;;;;0.22;84.58;101320.81;1799797;78;21116;-68
2020/12/19 03:43:31;;;;;;;29.77;18.42;;;;;;;0.25;84.60;101323.78;1799876;78;21047;-68
2020/12/19 03:46:00;;;;;;;30.50;17.32;;;;;;;0.25;84.59;101319.44;1799950;78;22922;-67
2020/12/19 03:48:27;;;;;;;24.98;15.72;;;;;;;0.28;84.59;101324.56;1799783;79;21094;-67
2020/12/19 03:50:55;;;;;;;27.85;16.12;;;;;;;0.31;84.60;101322.37;1799690;79;21127;-67
2020/12/19 03:53:23;;;;;;;23.60;15.18;;;;;;;0.31;84.61;101319.77;1799783;78;21118;-67
2020/12/19 03:55:50;;;;;;;23.75;14.75;;;;;;;0.31;84.62;101317.17;1799830;79;21115;-67
2020/12/19 03:58:19;;;;;;;24.00;14.70;;;;;;;0.33;84.58;101321.03;1799656;79;22052;-67
2020/12/19 04:00:46;;;;;;;21.50;13.25;;;;;;;0.35;84.58;101316.64;1799856;78;21530;-67
2020/12/19 04:03:14;;;;;;;22.10;13.30;;;;;;;0.36;84.57;101319.20;1799813;78;21564;-67
2020/12/19 04:05:42;;;;;;;19.75;13.28;;;;;;;0.36;84.55;101319.65;1799800;78;21170;-68
2020/12/19 04:08:09;;;;;;;20.68;13.65;;;;;;;0.36;84.55;101323.10;1799360;78;21482;-70
2020/12/19 04:10:37;;;;;;;26.05;15.88;;;;;;;0.35;84.54;101323.14;1799824;79;21894;-67
2020/12/19 04:13:04;;;;;;;25.52;15.35;;;;;;;0.34;84.55;101322.73;1799746;79;21574;-68
2020/12/19 04:15:31;;;;;;;22.55;14.47;;;;;;;0.32;84.56;101318.02;1799874;79;21605;-67
2020/12/19 04:17:59;;;;;;;26.62;15.43;;;;;;;0.31;84.59;101322.37;1799768;78;21055;-67
2020/12/19 04:20:27;;;;;;;20.80;13.62;;;;;;;0.30;84.59;101325.86;1799787;78;21051;-67
2020/12/19 04:22:55;;;;;;;22.98;14.33;;;;;;;0.32;84.60;101325.37;1799836;79;22068;-67
2020/12/19 04:25:22;;;;;;;20.75;12.13;;;;;;;0.32;84.60;101321.48;1799659;79;21178;-67
2020/12/19 04:27:50;;;;;;;25.15;15.40;;;;;;;0.33;84.60;101327.52;1799796;78;21044;-67
2020/12/19 04:30:18;;;;;;;23.55;14.70;;;;;;;0.31;84.58;101328.02;1799792;78;21063;-67
2020/12/19 04:32:47;;;;;;;24.70;14.25;;;;;;;0.31;84.60;101331.91;1799299;78;21106;-67
2020/12/19 04:35:15;;;;;;;179.38;84.62;;;;;;;0.29;84.59;101326.75;1798080;79;22062;-67
2020/12/19 04:37:43;;;;;;;65.70;34.73;;;;;;;0.30;84.62;101332.35;1798078;79;21157;-67
2020/12/19 04:40:10;;;;;;;31.02;18.35;;;;;;;0.28;84.63;101320.66;1798101;79;21062;-67
2020/12/19 04:42:38;;;;;;;35.92;19.60;;;;;;;0.30;84.62;101327.60;1797589;79;22433;-67
2020/12/19 04:45:06;;;;;;;94.83;50.00;;;;;;;0.29;84.62;101325.45;1799848;79;21111;-67
2020/12/19 04:47:33;;;;;;;152.72;76.40;;;;;;;0.29;84.62;101326.75;1799743;79;21558;-67
2020/12/19 04:50:01;;;;;;;42.80;24.45;;;;;;;0.27;84.63;101323.30;1799748;79;21126;-67
2020/12/19 04:52:29;;;;;;;36.03;20.68;;;;;;;0.27;84.62;101322.00;1799800;79;21048;-67
2020/12/19 04:54:56;;;;;;;29.50;18.35;;;;;;;0.27;84.63;101325.45;1799867;79;21395;-67
2020/12/19 04:57:24;;;;;;;32.95;19.95;;;;;;;0.26;84.63;101326.34;1799769;79;21103;-67
2020/12/19 04:59:51;;;;;;;28.47;17.95;;;;;;;0.24;84.64;101330.73;1799529;79;24261;-67
2020/12/19 05:02:19;;;;;;;19.17;11.78;;;;;;;0.24;84.64;101333.33;1799690;78;21190;-68
2020/12/19 05:04:50;;;;;;;27.35;16.87;;;;;;;0.25;84.64;101331.58;1799767;79;21475;-68
2020/12/19 05:07:19;;;;;;;27.55;15.65;;;;;;;0.22;84.60;101329.91;1798775;78;21078;-67
2020/12/19 05:09:47;;;;;;;31.57;18.45;;;;;;;0.23;84.64;101335.96;1799777;78;21039;-67
2020/12/19 05:12:15;;;;;;;34.15;20.35;;;;;;;0.23;84.64;101333.36;1799775;79;21947;-67
2020/12/19 05:14:42;;;;;;;50.90;29.05;;;;;;;0.25;84.64;101330.28;1799664;79;21182;-67
2020/12/19 05:17:10;;;;;;;155.78;80.00;;;;;;;0.26;84.63;101333.29;1799619;79;21506;-67
2020/12/19 05:19:37;;;;;;;93.10;50.73;;;;;;;0.24;84.64;101332.47;1799717;79;21071;-70
2020/12/19 05:22:05;;;;;;;84.35;48.20;;;;;;;0.23;84.65;101332.06;1799786;79;21131;-67
2020/12/19 05:24:34;;;;;;;33.38;19.23;;;;;;;0.23;84.67;101334.22;1799773;79;22048;-67
2020/12/19 05:27:05;;;;;;;26.73;16.10;;;;;;;0.25;84.67;101332.88;1799742;78;21618;-67
2020/12/19 05:29:35;;;;;;;29.80;18.85;;;;;;;0.25;84.64;101335.48;1799779;78;21072;-67
2020/12/19 05:32:02;;;;;;;32.70;19.80;;;;;;;0.23;84.65;101341.16;1799825;79;21291;-67
2020/12/19 05:34:30;;;;;;;31.15;18.02;;;;;;;0.24;84.66;101341.56;1799695;79;21052;-67
2020/12/19 05:36:58;;;;;;;33.67;17.87;;;;;;;0.24;84.68;101340.27;1799789;79;21895;-67
2020/12/19 05:39:26;;;;;;;28.73;17.52;;;;;;;0.23;84.67;101338.56;1799692;79;21125;-67
2020/12/19 05:41:54;;;;;;;28.32;16.95;;;;;;;0.22;84.68;101343.35;1799718;79;21501;-68
2020/12/19 05:44:22;;;;;;;30.60;17.77;;;;;;;0.20;84.68;101343.83;1799797;78;21035;-68
2020/12/19 05:46:51;;;;;;;29.70;17.90;;;;;;;0.20;84.69;101346.43;1799954;78;21051;-67
2020/12/19 05:49:21;;;;;;;113.70;63.87;;;;;;;0.20;84.73;101349.03;1799918;79;21943;-68
2020/12/19 05:51:49;;;;;;;98.45;56.00;;;;;;;0.22;84.73;101353.74;1799811;79;21502;-67
2020/12/19 05:54:17;;;;;;;96.35;55.78;;;;;;;0.20;84.74;101355.08;1759285;79;20916;-68
2020/12/19 05:56:48;;;;;;;123.92;73.67;;;;;;;0.20;84.75;101356.38;1799883;79;21059;-68
2020/12/19 05:59:18;;;;;;;40.28;23.95;;;;;;;0.21;84.76;101362.42;1803220;79;21080;-68
2020/12/19 06:01:48;;;;;;;35.52;19.70;;;;;;;0.21;84.78;101355.48;1807871;79;21953;-67
2020/12/19 06:04:17;;;;;;;33.80;19.00;;;;;;;0.22;84.78;101365.44;1807836;79;21118;-67
2020/12/19 06:06:48;;;;;;;39.73;20.82;;;;;;;0.22;84.79;101361.09;1807748;79;21123;-68
2020/12/19 06:09:18;;;;;;;35.15;20.77;;;;;;;0.22;84.77;101360.23;1776309;80;21087;-67
2020/12/19 06:11:54;;;;;;;31.95;17.98;;;;;;;0.22;84.78;101358.94;1776362;80;21139;-67
2020/12/19 06:14:22;;;;;;;64.22;35.65;;;;;;;0.23;84.79;101365.84;1776044;80;21903;-67
2020/12/19 06:16:57;;;;;;;38.33;22.95;;;;;;;0.26;84.80;101376.16;1775939;80;21083;-67
2020/12/19 06:19:24;;;;;;;31.60;18.77;;;;;;;0.28;84.83;101373.94;1775996;80;21210;-67
2020/12/19 06:21:55;;;;;;;41.50;22.48;;;;;;;0.30;84.81;101372.63;1775967;79;21613;-67
2020/12/19 06:24:46;;;;;;;36.48;19.75;;;;;;;0.28;84.83;101373.08;1784049;79;21166;-68
2020/12/19 06:27:29;;;;;;;31.57;17.87;;;;;;;0.27;84.83;101375.27;1807942;79;22048;-68
2020/12/19 06:29:56;;;;;;;27.10;14.70;;;;;;;0.28;84.84;101377.83;1807725;78;21151;-68
2020/12/19 06:32:27;;;;;;;31.45;17.70;;;;;;;0.28;84.86;101385.63;1807823;79;21091;-68
2020/12/19 06:35:08;;;;;;;29.98;16.97;;;;;;;0.28;84.87;101392.12;1807794;79;21158;-68
2020/12/19 06:37:39;;;;;;;26.17;13.58;;;;;;;0.30;84.90;101397.76;1807759;79;21127;-68
2020/12/19 06:40:18;;;;;;;33.38;17.95;;;;;;;0.33;84.92;101400.28;1807821;78;21961;-67
2020/12/19 06:42:51;;;;;;;33.63;17.15;;;;;;;0.33;84.90;101405.03;1807671;79;21084;-67
2020/12/19 06:45:27;;;;;;;27.52;12.65;;;;;;;0.32;84.91;101399.43;1789538;79;21496;-67
2020/12/19 06:47:56;;;;;;;39.73;19.62;;;;;;;0.32;84.92;101400.73;1778886;79;21131;-67
2020/12/19 06:50:24;;;;;;;30.57;16.75;;;;;;;0.30;84.92;101402.95;1807886;79;21561;-69
2020/12/19 06:52:59;;;;;;;39.08;18.85;;;;;;;0.28;84.94;101409.02;1807882;79;22920;-67
2020/12/19 06:55:29;;;;;;;39.55;18.65;;;;;;;0.27;84.96;101408.60;1807852;79;21227;-67
2020/12/19 06:57:58;;;;;;;47.48;23.05;;;;;;;0.29;84.98;101403.40;1807604;79;21111;-67
2020/12/19 07:00:31;;;;;;;45.78;21.52;;;;;;;0.35;84.99;101417.99;1778893;79;21092;-67
2020/12/19 07:03:01;;;;;;;41.77;22.07;;;;;;;0.38;85.01;101412.72;1807948;79;21040;-66
2020/12/19 07:05:31;;;;;;;48.45;21.85;;;;;;;0.40;85.04;101406.63;1807914;79;23000;-68
2020/12/19 07:08:20;;;;;;;43.60;21.10;;;;;;;0.43;85.03;101410.90;1807812;79;21593;-68
2020/12/19 07:10:49;;;;;;;45.10;21.55;;;;;;;0.44;85.03;101415.20;1807570;79;21483;-67
2020/12/19 07:13:18;;;;;;;44.38;21.87;;;;;;;0.44;85.04;101422.55;1807710;79;21071;-67
2020/12/19 07:15:48;;;;;;;47.08;21.45;;;;;;;0.45;85.04;101418.21;1807766;79;21345;-67
2020/12/19 07:18:29;;;;;;;41.77;20.57;;;;;;;0.47;85.08;101425.52;1807695;79;22058;-67
2020/12/19 07:21:00;;;;;;;39.78;18.37;;;;;;;0.48;85.07;101427.23;1807768;78;21079;-67
2020/12/19 07:23:29;;;;;;;45.95;20.75;;;;;;;0.50;85.09;101421.14;1807809;78;21048;-67
2020/12/19 07:25:57;;;;;;;40.92;20.25;;;;;;;0.50;85.13;101428.09;1807692;78;21107;-68
2020/12/19 07:28:24;;;;;;;44.23;18.80;;;;;;;0.52;85.13;101421.95;1807770;79;21048;-68
2020/12/19 07:30:51;;;;;;;41.73;20.80;;;;;;;0.52;85.13;101427.60;1807774;78;22115;-67
2020/12/19 07:33:19;;;;;;;44.70;22.35;;;;;;;0.52;85.13;101431.50;1807593;79;21072;-67
2020/12/19 07:35:47;;;;;;;47.20;21.93;;;;;;;0.54;85.14;101429.27;1807835;79;21391;-69
2020/12/19 07:38:18;;;;;;;45.52;20.05;;;;;;;0.57;85.17;101429.19;1807633;79;21215;-68
2020/12/19 07:40:55;;;;;;;46.70;21.97;;;;;;;0.59;85.16;101433.09;1799658;79;21536;-68
2020/12/19 07:43:24;;;;;;;55.33;26.55;;;;;;;0.61;85.16;101433.05;1781553;79;21907;-67
2020/12/19 07:45:58;;;;;;;55.08;30.52;;;;;;;0.61;85.16;101433.05;1807746;78;21084;-67
2020/12/19 07:48:26;;;;;;;;;;;;;;;0.62;85.16;101438.21;1809908;79;21151;-67
2020/12/19 07:50:53;;;;;;;48.33;24.65;;;;;;;0.62;85.15;101443.41;1806146;78;20530;-68
2020/12/19 07:53:21;;;;;;;48.68;24.00;;;;;;;0.64;85.18;101440.33;1806074;79;21127;-68
2020/12/19 07:55:51;;;;;;;53.87;24.85;;;;;;;0.67;85.19;101444.59;1806061;79;22748;-67
2020/12/19 07:58:20;;;;;;;42.88;18.85;;;;;;;0.68;85.18;101441.99;1807717;79;21067;-67
2020/12/19 08:00:48;;;;;;;41.37;20.75;;;;;;;0.68;85.17;101445.04;1807545;79;21059;-67
2020/12/19 08:03:16;;;;;;;52.80;25.88;;;;;;;0.68;85.17;101438.54;1807696;78;21482;-68
2020/12/19 08:05:53;;;;;;;51.00;25.23;;;;;;;0.66;85.14;101440.30;1807814;79;21057;-68
2020/12/19 08:08:21;;;;;;;52.70;24.05;;;;;;;0.66;85.13;101441.59;1775913;80;22060;-67
2020/12/19 08:10:48;;;;;;;51.10;26.27;;;;;;;0.69;85.15;101441.55;1775838;80;21085;-68
2020/12/19 08:13:16;;;;;;;34.92;17.70;;;;;;;0.69;85.15;101441.55;1775876;80;21123;-68
2020/12/19 08:15:44;;;;;;;53.92;25.27;;;;;;;0.71;85.16;101437.16;1775844;80;21388;-68
2020/12/19 08:18:12;;;;;;;49.65;26.77;;;;;;;0.71;85.14;101439.31;1775863;80;21131;-69
2020/12/19 08:20:40;;;;;;;60.33;33.30;;;;;;;0.72;85.13;101443.63;1748078;80;22082;-68
2020/12/19 08:23:09;;;;;;;49.60;25.70;;;;;;;0.72;85.13;101435.83;1780794;79;21183;-68
2020/12/19 08:25:36;;;;;;;51.55;24.25;;;;;;;0.73;85.10;101431.03;1807730;79;21115;-68
2020/12/19 08:28:04;;;;;;;53.13;25.12;;;;;;;0.75;85.12;101430.99;1807652;79;22666;-68
2020/12/19 08:30:33;;;;;;;100.20;51.95;;;;;;;0.77;85.12;101429.20;1807661;78;21130;-68
2020/12/19 08:33:07;;;;;;;123.60;56.88;;;;;;;0.78;85.11;101426.60;1807833;79;22052;-69
2020/12/19 08:35:43;;;;;;;95.97;44.38;;;;;;;0.78;85.08;101430.95;1807709;79;21103;-67
2020/12/19 08:38:21;;;;;;;136.05;67.03;;;;;;;0.78;85.07;101433.10;1807708;78;21063;-67
2020/12/19 08:40:50;;;;;;;74.53;39.33;;;;;;;0.78;85.08;101427.05;1806883;78;21044;-68
2020/12/19 08:43:21;;;;;;;69.65;36.28;;;;;;;0.78;85.05;101429.20;1777059;78;21618;-67
2020/12/19 08:45:50;;;;;;;101.22;55.43;;;;;;;0.77;85.04;101430.51;1777181;79;21903;-68
2020/12/19 08:48:23;;;;;;;73.35;38.55;;;;;;;0.78;85.05;101428.34;1805952;79;21084;-68
2020/12/19 08:50:53;;;;;;;83.37;46.50;;;;;;;0.79;85.03;101430.91;1805822;79;21175;-68
2020/12/19 08:53:25;;;;;;;52.00;28.83;;;;;;;0.79;85.03;101419.66;1806049;79;21495;-67
2020/12/19 08:55:54;;;;;;;49.58;27.75;;;;;;;0.79;85.00;101415.30;1806189;79;21159;-67
2020/12/19 08:58:28;;;;;;;51.92;28.85;;;;;;;0.79;84.98;101414.45;1807556;79;22101;-68
2020/12/19 09:00:57;;;;;;;;;;;;;;;0.77;84.96;101418.80;1810306;79;21229;-68
2020/12/19 09:03:30;;;;;;;38.28;21.15;;;;;;;0.77;84.97;101409.70;1807714;78;20230;-67
2020/12/19 09:06:05;;;;;;;40.58;21.48;;;;;;;0.78;84.98;101412.74;1807106;79;21115;-67
2020/12/19 09:08:47;;;;;;;36.98;20.80;;;;;;;0.85;84.97;101415.15;1873597;75;29008;-68
2020/12/19 09:11:25;;;;;;;31.73;17.85;;;;;;;0.82;84.98;101413.92;1841676;78;21546;-67
2020/12/19 09:14:07;;;;;;;33.25;18.60;;;;;;;0.86;84.97;101409.50;1840839;77;22831;-67
2020/12/19 09:16:38;;;;;;;33.78;19.48;;;;;;;0.84;84.93;101400.88;1808545;78;21589;-67
2020/12/19 09:19:15;;;;;;;39.15;20.08;;;;;;;0.84;84.92;101409.98;1779884;79;21111;-68
2020/12/19 09:22:01;;;;;;;39.53;21.75;;;;;;;0.84;84.92;101406.94;1779832;79;21142;-68
2020/12/19 09:24:29;;;;;;;33.80;19.82;;;;;;;0.83;84.91;101409.13;1779792;79;21059;-67
2020/12/19 09:26:57;;;;;;;37.60;19.75;;;;;;;0.84;84.91;101412.14;1808445;79;22046;-67
2020/12/19 09:29:24;;;;;;;35.15;19.57;;;;;;;0.89;84.90;101413.35;1787065;79;21128;-67
2020/12/19 09:31:52;;;;;;;36.33;19.30;;;;;;;0.92;84.90;101408.06;1755596;80;21591;-68
2020/12/19 09:34:20;;;;;;;35.17;19.07;;;;;;;0.96;84.86;101407.54;1754570;81;21119;-68
2020/12/19 09:36:49;;;;;;;36.83;20.97;;;;;;;0.93;84.82;101406.32;1754621;81;21058;-68
2020/12/19 09:39:17;;;;;;;37.08;20.57;;;;;;;0.91;84.79;101406.36;1754579;80;21947;-68
2020/12/19 09:41:44;;;;;;;33.10;18.40;;;;;;;0.89;84.78;101407.30;1754557;81;21133;-68
2020/12/19 09:44:13;;;;;;;34.60;20.90;;;;;;;0.87;84.75;101406.03;1754575;81;21595;-68
2020/12/19 09:46:40;;;;;;;29.05;17.27;;;;;;;0.87;84.75;101403.44;1754520;81;21125;-68
2020/12/19 09:49:08;;;;;;;34.98;20.68;;;;;;;0.90;84.76;101408.55;1755592;80;21069;-68
2020/12/19 09:51:35;;;;;;;32.83;19.25;;;;;;;0.91;84.73;101405.06;1754588;80;22129;-68
2020/12/19 09:54:03;;;;;;;29.10;16.87;;;;;;;0.91;84.71;101402.46;1754489;81;21149;-68
2020/12/19 09:56:40;;;;;;;37.53;20.50;;;;;;;0.93;84.69;101393.31;1764212;79;21456;-68
2020/12/19 09:59:07;;;;;;;35.75;21.05;;;;;;;0.92;84.68;101390.31;1785636;80;21042;-68
2020/12/19 10:01:35;;;;;;;36.25;20.72;;;;;;;0.98;84.70;101390.17;1785680;80;21117;-68
2020/12/19 10:04:03;;;;;;;29.67;16.82;;;;;;;1.03;84.70;101394.81;1785624;80;24232;-68
2020/12/19 10:06:30;;;;;;;34.50;20.50;;;;;;;1.03;84.69;101393.06;1763848;80;21132;-68
2020/12/19 10:08:58;;;;;;;35.20;21.12;;;;;;;1.08;84.69;101393.82;1754530;80;21085;-68
2020/12/19 10:11:27;;;;;;;31.57;19.85;;;;;;;1.12;84.67;101386.78;1725368;81;21120;-68
2020/12/19 10:13:54;;;;;;;35.05;20.45;;;;;;;1.14;84.64;101388.45;1754574;81;21429;-68
2020/12/19 10:16:22;;;;;;;34.55;20.02;;;;;;;1.13;84.61;101392.39;1754552;81;22164;-68
2020/12/19 10:18:49;;;;;;;26.65;16.50;;;;;;;1.16;84.61;101394.95;1754196;80;21076;-68
2020/12/19 10:21:17;;;;;;;36.63;20.82;;;;;;;1.18;84.57;101385.80;1754001;81;21357;-68
2020/12/19 10:23:44;;;;;;;36.05;20.25;;;;;;;1.16;84.51;101389.74;1755019;80;21121;-68
2020/12/19 10:26:12;;;;;;;32.17;20.15;;;;;;;1.19;84.49;101391.41;1754007;80;21156;-67
2020/12/19 10:28:40;;;;;;;32.25;18.90;;;;;;;1.19;84.45;101382.30;1753963;80;21948;-67
2020/12/19 10:31:08;;;;;;;30.57;19.30;;;;;;;1.22;84.45;101376.56;1753963;81;21078;-67
2020/12/19 10:33:36;;;;;;;30.62;17.77;;;;;;;1.21;84.38;101377.90;1753982;81;21121;-68
2020/12/19 10:36:04;;;;;;;30.72;18.95;;;;;;;1.19;84.33;101387.50;1754048;81;21570;-68
2020/12/19 10:38:33;;;;;;;44.33;23.38;;;;;;;1.19;84.31;101383.15;1754021;81;21125;-68
2020/12/19 10:41:01;;;;;;;83.82;39.65;;;;;;;1.19;84.28;101375.80;1755021;80;24204;-68
2020/12/19 10:43:29;;;;;;;44.35;24.07;;;;;;;1.19;84.26;101371.89;1754018;81;21082;-68
2020/12/19 10:45:56;;;;;;;54.55;28.00;;;;;;;1.20;84.25;101370.98;1765852;80;21105;-68
2020/12/19 10:48:24;;;;;;;47.03;26.00;;;;;;;1.20;84.25;101374.45;1783376;80;21065;-68
2020/12/19 10:50:51;;;;;;;123.13;52.78;;;;;;;1.21;84.21;101372.70;1783421;80;21054;-68
2020/12/19 10:53:19;;;;;;;94.87;44.40;;;;;;;1.22;84.18;101376.56;1783403;80;22067;-68
2020/12/19 10:55:46;;;;;;;71.37;34.78;;;;;;;1.22;84.18;101368.75;1783335;80;21121;-69
2020/12/19 10:58:14;;;;;;;38.58;22.00;;;;;;;1.27;84.17;101371.26;1754158;80;21148;-68
2020/12/19 11:00:42;;;;;;;30.50;18.48;;;;;;;1.25;84.15;101379.08;1753933;80;21184;-68
2020/12/19 11:03:10;;;;;;;53.87;30.77;;;;;;;1.23;84.09;101380.02;1754012;81;21070;-68
2020/12/19 11:05:40;;;;;;;64.42;42.93;;;;;;;1.21;84.08;101375.30;1754082;81;24126;-69
2020/12/19 11:08:08;;;;;;;45.48;28.15;;;;;;;1.21;84.08;101376.60;1762536;81;21072;-68
2020/12/19 11:10:36;;;;;;;56.73;36.30;;;;;;;1.22;84.06;101380.91;1770746;81;21140;-68
2020/12/19 11:13:04;;;;;;;48.83;31.33;;;;;;;1.24;84.06;101381.72;1771677;79;21136;-68
2020/12/19 11:15:32;;;;;;;41.70;24.20;;;;;;;1.26;84.05;101382.56;1770812;81;21634;-68
2020/12/19 11:18:02;;;;;;;34.43;21.40;;;;;;;1.29;84.06;101381.17;1770729;81;24276;-68
2020/12/19 11:20:30;;;;;;;39.75;24.43;;;;;;;1.28;84.01;101385.98;1770702;79;21092;-68
2020/12/19 11:22:57;;;;;;;35.28;20.20;;;;;;;1.26;84.00;101386.47;1770724;81;21045;-68
2020/12/19 11:25:25;;;;;;;32.48;20.00;;;;;;;1.28;83.99;101393.33;1770927;80;21160;-68
2020/12/19 11:27:53;;;;;;;37.30;22.73;;;;;;;1.26;83.94;101389.06;1770922;81;21164;-68